Ashley, Indiana
Current Conditions -  °F | °C
As of 1:15 PM on Tuesday 21 Oct 2014 (Local Time) from KANQ Reporting Station
Overcast Overcast  
Wind Chill:   Ceiling: 3500
Heat Index:   Visibility: 10mi
Dew Point:   Wind: 5mph
Humidity: 57%   Direction: 10°N
Pressure: 30.08"   Gusts: NA
Location:  41.53°N, 85.07°W
Report Text: KANQ 211715Z AUTO 01004KT 10SM SCT024 OVC035 09/01 A3008 RMK
Loading
Personal Weather Stations






























Interactive Weather Map
Tropical Storm Tracking
New forecast layout! Learn more

10-Day Weather Forecast

Advertisements
Track Severe Weather on mobile